sensor_id;sensor_type;location;lat;lon;timestamp;pressure;altitude;pressure_sealevel;temperature;humidity
74103;BME280;62853;46.166;3.640;2023-05-15T00:01:46;101374.28;;;13.17;100.00
74103;BME280;62853;46.166;3.640;2023-05-15T00:04:11;101367.88;;;13.21;100.00
74103;BME280;62853;46.166;3.640;2023-05-15T00:06:37;101372.91;;;13.10;100.00
74103;BME280;62853;46.166;3.640;2023-05-15T00:09:02;101370.19;;;13.11;100.00
74103;BME280;62853;46.166;3.640;2023-05-15T00:11:28;101369.59;;;13.06;100.00
74103;BME280;62853;46.166;3.640;2023-05-15T00:13:53;101370.09;;;13.13;100.00
74103;BME280;62853;46.166;3.640;2023-05-15T00:16:19;101368.94;;;13.02;100.00
74103;BME280;62853;46.166;3.640;2023-05-15T00:18:44;101366.19;;;13.04;100.00
74103;BME280;62853;46.166;3.640;2023-05-15T00:21:10;101351.63;;;12.97;100.00
74103;BME280;62853;46.166;3.640;2023-05-15T00:23:35;101355.91;;;12.83;100.00
74103;BME280;62853;46.166;3.640;2023-05-15T00:26:01;101355.69;;;12.87;100.00
74103;BME280;62853;46.166;3.640;2023-05-15T00:28:26;101355.91;;;12.83;100.00
74103;BME280;62853;46.166;3.640;2023-05-15T00:30:52;101353.19;;;12.85;100.00
74103;BME280;62853;46.166;3.640;2023-05-15T00:33:18;101340.53;;;12.74;100.00
74103;BME280;62853;46.166;3.640;2023-05-15T00:35:43;101344.22;;;12.72;100.00
74103;BME280;62853;46.166;3.640;2023-05-15T00:38:08;101344.31;;;12.70;100.00
74103;BME280;62853;46.166;3.640;2023-05-15T00:40:35;101339.88;;;12.55;100.00
74103;BME280;62853;46.166;3.640;2023-05-15T00:43:03;101341.81;;;12.51;100.00
74103;BME280;62853;46.166;3.640;2023-05-15T00:45:29;101346.16;;;12.52;100.00
74103;BME280;62853;46.166;3.640;2023-05-15T00:47:56;101339.16;;;12.51;100.00
74103;BME280;62853;46.166;3.640;2023-05-15T00:50:23;101336.81;;;12.46;100.00
74103;BME280;62853;46.166;3.640;2023-05-15T00:52:49;101331.00;;;12.56;100.00
74103;BME280;62853;46.166;3.640;2023-05-15T00:55:14;101343.94;;;12.44;100.00
74103;BME280;62853;46.166;3.640;2023-05-15T00:57:41;101331.31;;;12.34;100.00
74103;BME280;62853;46.166;3.640;2023-05-15T01:00:08;101338.91;;;12.40;100.00
74103;BME280;62853;46.166;3.640;2023-05-15T01:02:35;101340.00;;;12.36;100.00
74103;BME280;62853;46.166;3.640;2023-05-15T01:05:01;101332.44;;;12.30;100.00
74103;BME280;62853;46.166;3.640;2023-05-15T01:07:30;101342.03;;;12.31;100.00
74103;BME280;62853;46.166;3.640;2023-05-15T01:09:58;101335.16;;;12.28;100.00
74103;BME280;62853;46.166;3.640;2023-05-15T01:12:25;101340.09;;;12.34;100.00
74103;BME280;62853;46.166;3.640;2023-05-15T01:14:51;101329.50;;;12.18;100.00
74103;BME280;62853;46.166;3.640;2023-05-15T01:17:17;101329.44;;;12.20;100.00
74103;BME280;62853;46.166;3.640;2023-05-15T01:19:43;101322.50;;;12.17;100.00
74103;BME280;62853;46.166;3.640;2023-05-15T01:22:51;101324.22;;;12.18;100.00
74103;BME280;62853;46.166;3.640;2023-05-15T01:27:57;101324.47;;;12.14;100.00
74103;BME280;62853;46.166;3.640;2023-05-15T01:30:29;101330.78;;;12.11;100.00
74103;BME280;62853;46.166;3.640;2023-05-15T01:40:47;101321.00;;;12.13;100.00
74103;BME280;62853;46.166;3.640;2023-05-15T01:43:18;101315.56;;;11.99;100.00
74103;BME280;62853;46.166;3.640;2023-05-15T01:45:46;101316.97;;;12.06;100.00
74103;BME280;62853;46.166;3.640;2023-05-15T01:48:12;101324.38;;;12.15;100.00
74103;BME280;62853;46.166;3.640;2023-05-15T01:50:39;101312.16;;;11.97;100.00
74103;BME280;62853;46.166;3.640;2023-05-15T01:53:07;101316.19;;;11.86;100.00
74103;BME280;62853;46.166;3.640;2023-05-15T01:55:35;101328.16;;;11.94;100.00
74103;BME280;62853;46.166;3.640;2023-05-15T01:58:02;101318.84;;;11.86;100.00
74103;BME280;62853;46.166;3.640;2023-05-15T02:00:29;101321.47;;;11.86;100.00
74103;BME280;62853;46.166;3.640;2023-05-15T02:02:55;101320.25;;;11.76;100.00
74103;BME280;62853;46.166;3.640;2023-05-15T02:05:22;101319.75;;;11.85;100.00
74103;BME280;62853;46.166;3.640;2023-05-15T02:07:48;101323.34;;;11.84;100.00
74103;BME280;62853;46.166;3.640;2023-05-15T02:10:14;101314.97;;;11.76;100.00
74103;BME280;62853;46.166;3.640;2023-05-15T02:12:41;101314.75;;;11.63;100.00
74103;BME280;62853;46.166;3.640;2023-05-15T02:15:12;101311.84;;;11.52;100.00
74103;BME280;62853;46.166;3.640;2023-05-15T02:17:38;101317.94;;;11.70;100.00
74103;BME280;62853;46.166;3.640;2023-05-15T02:20:04;101315.22;;;11.71;100.00
74103;BME280;62853;46.166;3.640;2023-05-15T02:22:30;101317.31;;;11.65;100.00
74103;BME280;62853;46.166;3.640;2023-05-15T02:24:55;101319.66;;;11.71;100.00
74103;BME280;62853;46.166;3.640;2023-05-15T02:27:25;101318.69;;;11.72;100.00
74103;BME280;62853;46.166;3.640;2023-05-15T02:32:46;101321.06;;;11.61;100.00
74103;BME280;62853;46.166;3.640;2023-05-15T02:35:18;101317.94;;;11.70;100.00
74103;BME280;62853;46.166;3.640;2023-05-15T02:37:48;101316.84;;;11.74;100.00
74103;BME280;62853;46.166;3.640;2023-05-15T02:40:18;101319.34;;;11.77;100.00
74103;BME280;62853;46.166;3.640;2023-05-15T02:42:45;101315.81;;;11.77;100.00
74103;BME280;62853;46.166;3.640;2023-05-15T02:45:12;101317.53;;;11.78;100.00
74103;BME280;62853;46.166;3.640;2023-05-15T02:47:39;101318.38;;;11.78;100.00
74103;BME280;62853;46.166;3.640;2023-05-15T02:50:05;101327.06;;;11.80;100.00
74103;BME280;62853;46.166;3.640;2023-05-15T02:52:32;101329.25;;;11.72;100.00
74103;BME280;62853;46.166;3.640;2023-05-15T02:54:58;101322.97;;;11.75;100.00
74103;BME280;62853;46.166;3.640;2023-05-15T02:57:25;101323.47;;;11.65;100.00
74103;BME280;62853;46.166;3.640;2023-05-15T02:59:52;101320.81;;;11.65;100.00
74103;BME280;62853;46.166;3.640;2023-05-15T03:02:17;101322.94;;;11.59;100.00
74103;BME280;62853;46.166;3.640;2023-05-15T03:04:43;101323.38;;;11.49;100.00
74103;BME280;62853;46.166;3.640;2023-05-15T03:07:08;101318.66;;;11.56;100.00
74103;BME280;62853;46.166;3.640;2023-05-15T03:09:34;101312.69;;;11.52;100.00
74103;BME280;62853;46.166;3.640;2023-05-15T03:11:59;101309.00;;;11.55;100.00
74103;BME280;62853;46.166;3.640;2023-05-15T03:14:24;101313.66;;;11.50;100.00
74103;BME280;62853;46.166;3.640;2023-05-15T03:16:50;101314.69;;;11.47;100.00
74103;BME280;62853;46.166;3.640;2023-05-15T03:19:15;101315.63;;;11.46;100.00
74103;BME280;62853;46.166;3.640;2023-05-15T03:21:41;101311.66;;;11.38;100.00
74103;BME280;62853;46.166;3.640;2023-05-15T03:24:06;101312.22;;;11.27;100.00
74103;BME280;62853;46.166;3.640;2023-05-15T03:26:31;101312.91;;;11.30;100.00
74103;BME280;62853;46.166;3.640;2023-05-15T03:28:57;101319.19;;;11.28;100.00
74103;BME280;62853;46.166;3.640;2023-05-15T03:31:22;101314.78;;;11.28;100.00
74103;BME280;62853;46.166;3.640;2023-05-15T03:33:48;101313.00;;;11.29;100.00
74103;BME280;62853;46.166;3.640;2023-05-15T03:36:15;101304.69;;;11.19;100.00
74103;BME280;62853;46.166;3.640;2023-05-15T03:38:40;101300.44;;;11.16;100.00
74103;BME280;62853;46.166;3.640;2023-05-15T03:41:08;101313.38;;;11.21;100.00
74103;BME280;62853;46.166;3.640;2023-05-15T03:43:33;101307.63;;;11.13;100.00
74103;BME280;62853;46.166;3.640;2023-05-15T03:45:59;101295.66;;;11.06;100.00
74103;BME280;62853;46.166;3.640;2023-05-15T03:48:24;101296.22;;;11.12;100.00
74103;BME280;62853;46.166;3.640;2023-05-15T03:50:50;101297.63;;;11.02;100.00
74103;BME280;62853;46.166;3.640;2023-05-15T03:53:16;101290.06;;;10.94;100.00
74103;BME280;62853;46.166;3.640;2023-05-15T03:55:41;101291.72;;;10.97;100.00
74103;BME280;62853;46.166;3.640;2023-05-15T03:58:07;101298.84;;;10.95;100.00
74103;BME280;62853;46.166;3.640;2023-05-15T04:00:32;101302.19;;;10.98;100.00
74103;BME280;62853;46.166;3.640;2023-05-15T04:02:58;101303.91;;;11.00;100.00
74103;BME280;62853;46.166;3.640;2023-05-15T04:05:23;101298.09;;;10.93;100.00
74103;BME280;62853;46.166;3.640;2023-05-15T04:07:48;101300.72;;;10.93;100.00
74103;BME280;62853;46.166;3.640;2023-05-15T04:10:14;101293.59;;;10.95;100.00
74103;BME280;62853;46.166;3.640;2023-05-15T04:12:39;101301.09;;;11.03;100.00
74103;BME280;62853;46.166;3.640;2023-05-15T04:15:16;101304.56;;;10.86;100.00
74103;BME280;62853;46.166;3.640;2023-05-15T04:17:46;101306.69;;;10.77;100.00
74103;BME280;62853;46.166;3.640;2023-05-15T04:20:13;101301.22;;;10.82;100.00
74103;BME280;62853;46.166;3.640;2023-05-15T04:22:40;101306.75;;;10.95;100.00
74103;BME280;62853;46.166;3.640;2023-05-15T04:25:06;101307.81;;;10.91;100.00
74103;BME280;62853;46.166;3.640;2023-05-15T04:27:32;101308.13;;;10.85;100.00
74103;BME280;62853;46.166;3.640;2023-05-15T04:29:58;101320.09;;;10.92;100.00
74103;BME280;62853;46.166;3.640;2023-05-15T04:32:24;101315.78;;;10.89;100.00
74103;BME280;62853;46.166;3.640;2023-05-15T04:34:49;101313.97;;;10.91;100.00
74103;BME280;62853;46.166;3.640;2023-05-15T04:37:14;101317.44;;;10.92;100.00
74103;BME280;62853;46.166;3.640;2023-05-15T04:39:40;101320.00;;;10.93;100.00
74103;BME280;62853;46.166;3.640;2023-05-15T04:42:05;101322.72;;;10.92;100.00
74103;BME280;62853;46.166;3.640;2023-05-15T04:44:31;101327.91;;;10.93;100.00
74103;BME280;62853;46.166;3.640;2023-05-15T04:46:57;101329.59;;;10.94;100.00
74103;BME280;62853;46.166;3.640;2023-05-15T04:49:23;101323.28;;;10.98;100.00
74103;BME280;62853;46.166;3.640;2023-05-15T04:51:48;101332.50;;;11.07;100.00
74103;BME280;62853;46.166;3.640;2023-05-15T04:54:13;101333.34;;;11.08;100.00
74103;BME280;62853;46.166;3.640;2023-05-15T04:56:39;101340.50;;;11.06;100.00
74103;BME280;62853;46.166;3.640;2023-05-15T04:59:04;101335.97;;;11.08;100.00
74103;BME280;62853;46.166;3.640;2023-05-15T05:01:29;101336.63;;;11.13;100.00
74103;BME280;62853;46.166;3.640;2023-05-15T05:03:55;101325.78;;;11.19;100.00
74103;BME280;62853;46.166;3.640;2023-05-15T05:06:21;101325.47;;;11.25;100.00
74103;BME280;62853;46.166;3.640;2023-05-15T05:08:47;101330.97;;;11.38;100.00
74103;BME280;62853;46.166;3.640;2023-05-15T05:11:12;101330.81;;;11.41;100.00
74103;BME280;62853;46.166;3.640;2023-05-15T05:13:37;101335.50;;;11.53;100.00
74103;BME280;62853;46.166;3.640;2023-05-15T05:16:03;101340.06;;;11.67;100.00
74103;BME280;62853;46.166;3.640;2023-05-15T05:18:29;101349.69;;;11.51;100.00
74103;BME280;62853;46.166;3.640;2023-05-15T05:21:01;101345.41;;;11.66;100.00
74103;BME280;62853;46.166;3.640;2023-05-15T05:23:28;101342.94;;;11.63;100.00
74103;BME280;62853;46.166;3.640;2023-05-15T05:25:53;101350.75;;;11.82;100.00
74103;BME280;62853;46.166;3.640;2023-05-15T05:28:19;101352.94;;;11.91;100.00
74103;BME280;62853;46.166;3.640;2023-05-15T05:30:45;101347.78;;;11.88;100.00
74103;BME280;62853;46.166;3.640;2023-05-15T05:33:10;101349.06;;;11.98;100.00
74103;BME280;62853;46.166;3.640;2023-05-15T05:35:36;101351.84;;;11.95;100.00
74103;BME280;62853;46.166;3.640;2023-05-15T05:38:01;101351.00;;;11.95;100.00
74103;BME280;62853;46.166;3.640;2023-05-15T05:40:27;101362.47;;;11.94;100.00
74103;BME280;62853;46.166;3.640;2023-05-15T05:42:52;101360.44;;;11.99;100.00
74103;BME280;62853;46.166;3.640;2023-05-15T05:45:17;101365.44;;;11.87;100.00
74103;BME280;62853;46.166;3.640;2023-05-15T05:47:44;101363.50;;;11.91;100.00
74103;BME280;62853;46.166;3.640;2023-05-15T05:50:09;101374.13;;;11.89;100.00
74103;BME280;62853;46.166;3.640;2023-05-15T05:52:35;101364.97;;;11.97;100.00
74103;BME280;62853;46.166;3.640;2023-05-15T05:55:00;101366.00;;;11.94;100.00
74103;BME280;62853;46.166;3.640;2023-05-15T05:57:25;101366.53;;;12.01;100.00
74103;BME280;62853;46.166;3.640;2023-05-15T05:59:51;101364.00;;;12.15;100.00
74103;BME280;62853;46.166;3.640;2023-05-15T06:02:16;101365.78;;;12.15;100.00
74103;BME280;62853;46.166;3.640;2023-05-15T06:04:42;101367.31;;;12.19;100.00
74103;BME280;62853;46.166;3.640;2023-05-15T06:07:07;101365.88;;;12.13;100.00
74103;BME280;62853;46.166;3.640;2023-05-15T06:09:33;101371.84;;;12.17;100.00
74103;BME280;62853;46.166;3.640;2023-05-15T06:11:58;101368.88;;;12.23;100.00
74103;BME280;62853;46.166;3.640;2023-05-15T06:14:25;101375.47;;;12.32;100.00
74103;BME280;62853;46.166;3.640;2023-05-15T06:16:51;101367.91;;;12.41;100.00
74103;BME280;62853;46.166;3.640;2023-05-15T06:19:16;101366.53;;;12.50;100.00
74103;BME280;62853;46.166;3.640;2023-05-15T06:21:42;101375.00;;;12.57;100.00
74103;BME280;62853;46.166;3.640;2023-05-15T06:24:07;101371.06;;;12.64;100.00
74103;BME280;62853;46.166;3.640;2023-05-15T06:26:33;101364.69;;;12.84;100.00
74103;BME280;62853;46.166;3.640;2023-05-15T06:28:58;101368.34;;;12.97;100.00
74103;BME280;62853;46.166;3.640;2023-05-15T06:31:23;101369.69;;;13.05;100.00
74103;BME280;62853;46.166;3.640;2023-05-15T06:33:49;101368.91;;;13.18;100.00
74103;BME280;62853;46.166;3.640;2023-05-15T06:36:15;101363.31;;;13.09;100.00
74103;BME280;62853;46.166;3.640;2023-05-15T06:38:40;101361.16;;;12.99;100.00
74103;BME280;62853;46.166;3.640;2023-05-15T06:41:08;101363.63;;;13.02;100.00
74103;BME280;62853;46.166;3.640;2023-05-15T06:43:34;101364.47;;;13.03;100.00
74103;BME280;62853;46.166;3.640;2023-05-15T06:45:59;101365.00;;;13.10;100.00
74103;BME280;62853;46.166;3.640;2023-05-15T06:48:24;101361.75;;;13.05;100.00
74103;BME280;62853;46.166;3.640;2023-05-15T06:50:50;101368.31;;;13.13;100.00
74103;BME280;62853;46.166;3.640;2023-05-15T06:53:15;101365.56;;;13.15;100.00
74103;BME280;62853;46.166;3.640;2023-05-15T06:55:41;101367.03;;;13.20;100.00
74103;BME280;62853;46.166;3.640;2023-05-15T06:58:07;101362.97;;;13.45;100.00
74103;BME280;62853;46.166;3.640;2023-05-15T07:00:32;101367.66;;;14.15;100.00
74103;BME280;62853;46.166;3.640;2023-05-15T07:02:58;101359.25;;;14.79;100.00
74103;BME280;62853;46.166;3.640;2023-05-15T07:05:23;101361.28;;;16.21;100.00
74103;BME280;62853;46.166;3.640;2023-05-15T07:07:48;101353.19;;;16.85;100.00
74103;BME280;62853;46.166;3.640;2023-05-15T07:10:14;101361.03;;;17.11;100.00
74103;BME280;62853;46.166;3.640;2023-05-15T07:12:39;101366.06;;;18.09;100.00
74103;BME280;62853;46.166;3.640;2023-05-15T07:15:05;101354.69;;;19.40;100.00
74103;BME280;62853;46.166;3.640;2023-05-15T07:17:32;101358.97;;;20.56;83.37
74103;BME280;62853;46.166;3.640;2023-05-15T07:19:57;101359.91;;;21.44;76.11
74103;BME280;62853;46.166;3.640;2023-05-15T07:22:22;101345.59;;;22.58;79.60
74103;BME280;62853;46.166;3.640;2023-05-15T07:24:48;101346.25;;;23.59;66.28
74103;BME280;62853;46.166;3.640;2023-05-15T07:27:13;101344.31;;;23.96;59.34
74103;BME280;62853;46.166;3.640;2023-05-15T07:29:38;101344.25;;;23.88;61.88
74103;BME280;62853;46.166;3.640;2023-05-15T07:32:04;101346.84;;;23.98;62.34
74103;BME280;62853;46.166;3.640;2023-05-15T07:34:30;101346.88;;;24.06;58.06
74103;BME280;62853;46.166;3.640;2023-05-15T07:36:55;101339.41;;;23.21;56.61
74103;BME280;62853;46.166;3.640;2023-05-15T07:39:20;101339.75;;;22.07;66.08
74103;BME280;62853;46.166;3.640;2023-05-15T07:41:46;101329.88;;;21.41;74.58
74103;BME280;62853;46.166;3.640;2023-05-15T07:44:11;101336.06;;;20.92;68.18
74103;BME280;62853;46.166;3.640;2023-05-15T07:46:36;101344.53;;;20.37;69.77
74103;BME280;62853;46.166;3.640;2023-05-15T07:49:03;101341.00;;;20.77;75.98
74103;BME280;62853;46.166;3.640;2023-05-15T07:51:28;101333.94;;;21.74;69.07
74103;BME280;62853;46.166;3.640;2023-05-15T07:53:54;101333.66;;;22.88;64.90
74103;BME280;62853;46.166;3.640;2023-05-15T07:56:19;101328.53;;;24.36;56.42
74103;BME280;62853;46.166;3.640;2023-05-15T07:58:45;101326.59;;;24.70;51.16
74103;BME280;62853;46.166;3.640;2023-05-15T08:01:11;101315.22;;;25.67;53.75
74103;BME280;62853;46.166;3.640;2023-05-15T08:03:36;101323.97;;;26.25;48.18
74103;BME280;62853;46.166;3.640;2023-05-15T08:06:01;101322.94;;;26.58;46.84
74103;BME280;62853;46.166;3.640;2023-05-15T08:08:27;101317.56;;;27.27;44.92
74103;BME280;62853;46.166;3.640;2023-05-15T08:10:52;101326.97;;;28.07;45.18
74103;BME280;62853;46.166;3.640;2023-05-15T08:13:18;101320.63;;;28.88;43.84
74103;BME280;62853;46.166;3.640;2023-05-15T08:15:43;101307.63;;;29.83;40.52
74103;BME280;62853;46.166;3.640;2023-05-15T08:18:09;101307.09;;;30.01;38.49
74103;BME280;62853;46.166;3.640;2023-05-15T08:20:35;101310.28;;;30.59;37.59
74103;BME280;62853;46.166;3.640;2023-05-15T08:23:01;101306.28;;;30.55;36.18
74103;BME280;62853;46.166;3.640;2023-05-15T08:25:26;101305.56;;;31.08;38.89
74103;BME280;62853;46.166;3.640;2023-05-15T08:27:51;101303.88;;;31.47;36.67
74103;BME280;62853;46.166;3.640;2023-05-15T08:30:17;101305.22;;;31.97;32.79
74103;BME280;62853;46.166;3.640;2023-05-15T08:32:42;101310.34;;;31.66;35.05
74103;BME280;62853;46.166;3.640;2023-05-15T08:35:09;101304.31;;;31.51;34.29
74103;BME280;62853;46.166;3.640;2023-05-15T08:37:35;101305.91;;;31.72;35.58
74103;BME280;62853;46.166;3.640;2023-05-15T08:40:01;101303.81;;;32.39;35.63
74103;BME280;62853;46.166;3.640;2023-05-15T08:42:38;101310.19;;;32.65;36.59
74103;BME280;62853;46.166;3.640;2023-05-15T08:45:07;101303.28;;;32.56;32.84
74103;BME280;62853;46.166;3.640;2023-05-15T08:47:37;101295.50;;;32.66;33.63
74103;BME280;62853;46.166;3.640;2023-05-15T08:50:13;101298.50;;;33.15;34.33
74103;BME280;62853;46.166;3.640;2023-05-15T08:52:46;101291.63;;;32.80;32.98
74103;BME280;62853;46.166;3.640;2023-05-15T08:55:15;101290.13;;;32.07;33.10
74103;BME280;62853;46.166;3.640;2023-05-15T08:57:42;101294.63;;;30.88;32.59
74103;BME280;62853;46.166;3.640;2023-05-15T09:00:08;101281.03;;;28.93;33.60
74103;BME280;62853;46.166;3.640;2023-05-15T09:02:36;101287.19;;;28.44;39.18
74103;BME280;62853;46.166;3.640;2023-05-15T09:05:02;101290.63;;;28.89;37.35
74103;BME280;62853;46.166;3.640;2023-05-15T09:07:31;101296.50;;;27.90;37.42
74103;BME280;62853;46.166;3.640;2023-05-15T09:09:58;101293.09;;;27.05;42.28
74103;BME280;62853;46.166;3.640;2023-05-15T09:12:24;101298.63;;;26.89;43.54
74103;BME280;62853;46.166;3.640;2023-05-15T09:14:50;101290.41;;;26.82;45.12
74103;BME280;62853;46.166;3.640;2023-05-15T09:17:16;101295.56;;;25.90;42.53
74103;BME280;62853;46.166;3.640;2023-05-15T09:19:41;101297.41;;;25.33;48.74
74103;BME280;62853;46.166;3.640;2023-05-15T09:22:18;101298.22;;;24.93;46.64
74103;BME280;62853;46.166;3.640;2023-05-15T09:24:49;101298.59;;;24.47;44.50
74103;BME280;62853;46.166;3.640;2023-05-15T09:27:16;101293.78;;;24.16;48.09
74103;BME280;62853;46.166;3.640;2023-05-15T09:29:41;101293.50;;;23.67;51.19
74103;BME280;62853;46.166;3.640;2023-05-15T09:32:09;101293.03;;;23.45;53.83
74103;BME280;62853;46.166;3.640;2023-05-15T09:34:37;101295.72;;;23.19;52.26
74103;BME280;62853;46.166;3.640;2023-05-15T09:37:05;101302.03;;;23.00;54.46
74103;BME280;62853;46.166;3.640;2023-05-15T09:39:31;101300.75;;;22.86;55.59
74103;BME280;62853;46.166;3.640;2023-05-15T09:42:10;101302.97;;;22.73;54.56
74103;BME280;62853;46.166;3.640;2023-05-15T09:44:40;101296.25;;;22.41;53.79
74103;BME280;62853;46.166;3.640;2023-05-15T09:47:06;101294.03;;;21.99;54.68
74103;BME280;62853;46.166;3.640;2023-05-15T09:49:32;101296.84;;;21.60;56.14
74103;BME280;62853;46.166;3.640;2023-05-15T09:51:58;101297.47;;;21.14;57.67
74103;BME280;62853;46.166;3.640;2023-05-15T09:54:24;101298.88;;;20.79;58.58
74103;BME280;62853;46.166;3.640;2023-05-15T09:56:52;101302.34;;;20.51;62.77
74103;BME280;62853;46.166;3.640;2023-05-15T09:59:18;101293.50;;;20.19;66.50
74103;BME280;62853;46.166;3.640;2023-05-15T10:01:50;101304.00;;;20.01;80.41
74103;BME280;62853;46.166;3.640;2023-05-15T10:04:16;101305.56;;;20.04;79.75
74103;BME280;62853;46.166;3.640;2023-05-15T10:06:45;101307.31;;;19.84;89.24
74103;BME280;62853;46.166;3.640;2023-05-15T10:09:11;101306.59;;;19.40;76.69
74103;BME280;62853;46.166;3.640;2023-05-15T10:11:40;101308.97;;;19.22;88.70
74103;BME280;62853;46.166;3.640;2023-05-15T10:14:09;101313.75;;;19.18;91.61
74103;BME280;62853;46.166;3.640;2023-05-15T10:16:36;101317.38;;;19.17;92.83
74103;BME280;62853;46.166;3.640;2023-05-15T10:19:07;101309.13;;;18.88;90.79
74103;BME280;62853;46.166;3.640;2023-05-15T10:21:34;101319.44;;;18.92;93.37
74103;BME280;62853;46.166;3.640;2023-05-15T10:24:01;101315.56;;;18.74;96.03
74103;BME280;62853;46.166;3.640;2023-05-15T10:26:36;101318.97;;;18.87;100.00
74103;BME280;62853;46.166;3.640;2023-05-15T10:29:07;101320.19;;;18.83;100.00
74103;BME280;62853;46.166;3.640;2023-05-15T10:31:33;101318.63;;;18.69;100.00
74103;BME280;62853;46.166;3.640;2023-05-15T10:34:01;101320.22;;;18.61;100.00
74103;BME280;62853;46.166;3.640;2023-05-15T10:36:27;101318.03;;;18.54;100.00
74103;BME280;62853;46.166;3.640;2023-05-15T10:38:52;101307.97;;;18.58;100.00
74103;BME280;62853;46.166;3.640;2023-05-15T10:41:19;101316.31;;;18.65;100.00
74103;BME280;62853;46.166;3.640;2023-05-15T10:43:45;101307.25;;;18.56;100.00
74103;BME280;62853;46.166;3.640;2023-05-15T10:46:12;101320.34;;;18.48;100.00
74103;BME280;62853;46.166;3.640;2023-05-15T10:48:38;101307.47;;;18.53;100.00
74103;BME280;62853;46.166;3.640;2023-05-15T10:51:04;101307.84;;;18.59;100.00
74103;BME280;62853;46.166;3.640;2023-05-15T10:53:31;101314.00;;;18.60;100.00
74103;BME280;62853;46.166;3.640;2023-05-15T10:55:56;101307.00;;;18.48;98.36
74103;BME280;62853;46.166;3.640;2023-05-15T10:58:22;101303.88;;;18.43;100.00
74103;BME280;62853;46.166;3.640;2023-05-15T11:00:48;101308.59;;;18.50;100.00
74103;BME280;62853;46.166;3.640;2023-05-15T11:03:14;101312.69;;;18.66;100.00
74103;BME280;62853;46.166;3.640;2023-05-15T11:06:09;101306.34;;;18.67;100.00
74103;BME280;62853;46.166;3.640;2023-05-15T11:08:41;101325.31;;;18.52;100.00
74103;BME280;62853;46.166;3.640;2023-05-15T11:14:32;101318.09;;;18.32;100.00
74103;BME280;62853;46.166;3.640;2023-05-15T11:16:59;101324.72;;;18.37;100.00
74103;BME280;62853;46.166;3.640;2023-05-15T11:27:16;101313.72;;;18.19;100.00
74103;BME280;62853;46.166;3.640;2023-05-15T11:30:10;101317.25;;;18.20;100.00
74103;BME280;62853;46.166;3.640;2023-05-15T11:35:09;101312.97;;;18.06;100.00
74103;BME280;62853;46.166;3.640;2023-05-15T11:37:43;101313.13;;;17.93;100.00
74103;BME280;62853;46.166;3.640;2023-05-15T11:40:21;101314.47;;;17.88;100.00
74103;BME280;62853;46.166;3.640;2023-05-15T11:43:26;101311.88;;;17.86;100.00
74103;BME280;62853;46.166;3.640;2023-05-15T11:48:18;101309.44;;;17.83;100.00
74103;BME280;62853;46.166;3.640;2023-05-15T11:50:44;101311.25;;;17.82;100.00
74103;BME280;62853;46.166;3.640;2023-05-15T11:53:10;101305.44;;;17.77;100.00
74103;BME280;62853;46.166;3.640;2023-05-15T11:55:37;101304.81;;;17.74;100.00
74103;BME280;62853;46.166;3.640;2023-05-15T11:58:04;101307.88;;;17.69;100.00
74103;BME280;62853;46.166;3.640;2023-05-15T12:00:30;101307.97;;;17.67;100.00
74103;BME280;62853;46.166;3.640;2023-05-15T12:02:56;101314.38;;;17.65;100.00
74103;BME280;62853;46.166;3.640;2023-05-15T12:05:22;101305.44;;;17.66;100.00
74103;BME280;62853;46.166;3.640;2023-05-15T12:07:48;101306.00;;;17.58;100.00
74103;BME280;62853;46.166;3.640;2023-05-15T12:10:13;101310.97;;;17.52;100.00
74103;BME280;62853;46.166;3.640;2023-05-15T12:12:40;101311.69;;;17.42;100.00
74103;BME280;62853;46.166;3.640;2023-05-15T12:15:13;101311.03;;;17.27;100.00
74103;BME280;62853;46.166;3.640;2023-05-15T12:17:40;101312.34;;;17.22;100.00
74103;BME280;62853;46.166;3.640;2023-05-15T12:20:17;101311.41;;;16.99;100.00
74103;BME280;62853;46.166;3.640;2023-05-15T12:22:43;101308.84;;;16.97;100.00
74103;BME280;62853;46.166;3.640;2023-05-15T12:25:10;101313.88;;;16.89;100.00
74103;BME280;62853;46.166;3.640;2023-05-15T12:27:37;101311.13;;;16.78;100.00
74103;BME280;62853;46.166;3.640;2023-05-15T12:30:04;101312.69;;;16.93;100.00
74103;BME280;62853;46.166;3.640;2023-05-15T12:32:34;101313.13;;;17.11;100.00
74103;BME280;62853;46.166;3.640;2023-05-15T12:35:01;101322.41;;;17.29;100.00
74103;BME280;62853;46.166;3.640;2023-05-15T12:37:30;101315.50;;;17.27;100.00
74103;BME280;62853;46.166;3.640;2023-05-15T12:40:05;101320.34;;;17.22;100.00
74103;BME280;62853;46.166;3.640;2023-05-15T12:42:38;101315.00;;;17.22;100.00
74103;BME280;62853;46.166;3.640;2023-05-15T12:45:11;101320.28;;;17.10;100.00
74103;BME280;62853;46.166;3.640;2023-05-15T12:47:37;101318.25;;;17.14;100.00
74103;BME280;62853;46.166;3.640;2023-05-15T12:50:13;101319.75;;;17.29;100.00
74103;BME280;62853;46.166;3.640;2023-05-15T12:52:40;101313.81;;;17.26;100.00
74103;BME280;62853;46.166;3.640;2023-05-15T12:55:15;101313.34;;;17.32;100.00
74103;BME280;62853;46.166;3.640;2023-05-15T12:57:41;101313.63;;;17.52;100.00
74103;BME280;62853;46.166;3.640;2023-05-15T13:00:09;101308.47;;;17.73;100.00
74103;BME280;62853;46.166;3.640;2023-05-15T13:02:35;101314.47;;;17.88;100.00
74103;BME280;62853;46.166;3.640;2023-05-15T13:05:03;101309.13;;;17.99;100.00
74103;BME280;62853;46.166;3.640;2023-05-15T13:07:29;101305.00;;;18.17;100.00
74103;BME280;62853;46.166;3.640;2023-05-15T13:10:04;101313.00;;;18.29;100.00
74103;BME280;62853;46.166;3.640;2023-05-15T13:12:38;101317.00;;;18.23;100.00